地図

経路データ

SID SEASON NUMBER BASIN SUBBASIN NAME ISO_TIME NATURE LAT LON WMO_WIND WMO_PRES WMO_AGENCY TRACK_TYPE DIST2LAND LANDFALL IFLAG USA_AGENCY USA_ATCF_ID USA_LAT USA_LON USA_RECORD USA_STATUS USA_WIND USA_PRES USA_SSHS USA_R34_NE USA_R34_SE USA_R34_SW USA_R34_NW USA_R50_NE USA_R50_SE USA_R50_SW USA_R50_NW USA_R64_NE USA_R64_SE USA_R64_SW USA_R64_NW USA_POCI USA_ROCI USA_RMW USA_EYE TOKYO_LAT TOKYO_LON TOKYO_GRADE TOKYO_WIND TOKYO_PRES TOKYO_R50_DIR TOKYO_R50_LONG TOKYO_R50_SHORT TOKYO_R30_DIR TOKYO_R30_LONG TOKYO_R30_SHORT TOKYO_LAND CMA_LAT CMA_LON CMA_CAT CMA_WIND CMA_PRES HKO_LAT HKO_LON HKO_CAT HKO_WIND HKO_PRES NEWDELHI_LAT NEWDELHI_LON NEWDELHI_GRADE NEWDELHI_WIND NEWDELHI_PRES NEWDELHI_CI NEWDELHI_DP NEWDELHI_POCI REUNION_LAT REUNION_LON REUNION_TYPE REUNION_WIND REUNION_PRES REUNION_TNUM REUNION_CI REUNION_RMW REUNION_R34_NE REUNION_R34_SE REUNION_R34_SW REUNION_R34_NW REUNION_R50_NE REUNION_R50_SE REUNION_R50_SW REUNION_R50_NW REUNION_R64_NE REUNION_R64_SE REUNION_R64_SW REUNION_R64_NW BOM_LAT BOM_LON BOM_TYPE BOM_WIND BOM_PRES BOM_TNUM BOM_CI BOM_RMW BOM_R34_NE BOM_R34_SE BOM_R34_SW BOM_R34_NW BOM_R50_NE BOM_R50_SE BOM_R50_SW BOM_R50_NW BOM_R64_NE BOM_R64_SE BOM_R64_SW BOM_R64_NW BOM_ROCI BOM_POCI BOM_EYE BOM_POS_METHOD BOM_PRES_METHOD NADI_LAT NADI_LON NADI_CAT NADI_WIND NADI_PRES WELLINGTON_LAT WELLINGTON_LON WELLINGTON_WIND WELLINGTON_PRES DS824_LAT DS824_LON DS824_STAGE DS824_WIND DS824_PRES TD9636_LAT TD9636_LON TD9636_STAGE TD9636_WIND TD9636_PRES TD9635_LAT TD9635_LON TD9635_WIND TD9635_PRES TD9635_ROCI NEUMANN_LAT NEUMANN_LON NEUMANN_CLASS NEUMANN_WIND NEUMANN_PRES MLC_LAT MLC_LON MLC_CLASS MLC_WIND MLC_PRES USA_GUST BOM_GUST BOM_GUST_PER REUNION_GUST REUNION_GUST_PER USA_SEAHGT USA_SEARAD_NE USA_SEARAD_SE USA_SEARAD_SW USA_SEARAD_NW STORM_SPEED STORM_DIR
1913242N19145 1913 42 WP MM NOT_NAMED 1913-08-30 09:00:00 NR 19.0000 144.700 main 1834 1789 __________O___ -1 19.0000 144.700 2 19 272
1913242N19145 1913 42 WP MM NOT_NAMED 1913-08-30 12:00:00 NR 19.0302 143.671 main 1789 1737 __________P___ -1 19.0302 143.671 2 19 272
1913242N19145 1913 42 WP MM NOT_NAMED 1913-08-30 15:00:00 NR 19.0558 142.663 main 1737 1704 __________P___ -1 19.0558 142.663 2 19 271
1913242N19145 1913 42 WP MM NOT_NAMED 1913-08-30 18:00:00 NR 19.0784 141.698 main 1701 1665 __________P___ -1 19.0784 141.698 2 18 271
1913242N19145 1913 42 WP MM NOT_NAMED 1913-08-30 21:00:00 NR 19.1000 140.800 main 1665 1621 __________O___ -1 19.1000 140.800 2 16 272
1913242N19145 1913 42 WP MM NOT_NAMED 1913-08-31 00:00:00 NR 19.1227 139.981 main 1621 1585 __________P___ -1 19.1227 139.981 2 15 272
1913242N19145 1913 42 WP MM NOT_NAMED 1913-08-31 03:00:00 NR 19.1471 139.225 main 1579 1533 __________P___ -1 19.1471 139.225 2 14 272
1913242N19145 1913 42 WP MM NOT_NAMED 1913-08-31 06:00:00 NR 19.1731 138.506 main 1533 1498 __________P___ -1 19.1731 138.506 2 13 272
1913242N19145 1913 42 WP MM NOT_NAMED 1913-08-31 09:00:00 NR 19.2000 137.800 main 1498 1458 __________O___ -1 19.2000 137.800 2 14 272
1913242N19145 1913 42 WP MM NOT_NAMED 1913-08-31 12:00:00 NR 19.2256 136.995 main 1458 1387 __________P___ -1 19.2256 136.995 2 15 272
1913242N19145 1913 42 WP MM NOT_NAMED 1913-08-31 15:00:00 NR 19.2512 136.208 main 1393 1327 __________P___ -1 19.2512 136.208 2 14 272
1913242N19145 1913 42 WP MM NOT_NAMED 1913-08-31 18:00:00 NR 19.2759 135.492 main 1327 1271 __________P___ -1 19.2759 135.492 2 12 272
1913242N19145 1913 42 WP MM NOT_NAMED 1913-08-31 21:00:00 NR 19.3000 134.900 main 1271 1234 __________O___ -1 19.3000 134.900 2 9 273
1913242N19145 1913 42 WP MM NOT_NAMED 1913-09-01 00:00:00 NR 19.3231 134.508 main 1234 1215 __________P___ -1 19.3231 134.508 2 6 274
1913242N19145 1913 42 WP MM NOT_NAMED 1913-09-01 03:00:00 NR 19.3477 134.237 main 1206 1193 __________P___ -1 19.3477 134.237 2 5 276
1913242N19145 1913 42 WP MM NOT_NAMED 1913-09-01 06:00:00 NR 19.3736 134.023 main 1193 1175 __________P___ -1 19.3736 134.023 2 4 277
1913242N19145 1913 42 WP MM NOT_NAMED 1913-09-01 09:00:00 NR 19.4000 133.800 main 1175 1148 __________O___ -1 19.4000 133.800 2 5 276
1913242N19145 1913 42 WP MM NOT_NAMED 1913-09-01 12:00:00 NR 19.4250 133.467 main 1148 1112 __________P___ -1 19.4250 133.467 2 6 274
1913242N19145 1913 42 WP MM NOT_NAMED 1913-09-01 15:00:00 NR 19.4501 133.115 main 1118 1092 __________P___ -1 19.4501 133.115 2 7 274
1913242N19145 1913 42 WP MM NOT_NAMED 1913-09-01 18:00:00 NR 19.4750 132.755 main 1092 1057 __________P___ -1 19.4750 132.755 2 7 274
1913242N19145 1913 42 WP MM NOT_NAMED 1913-09-01 21:00:00 NR 19.5000 132.400 main 1057 1031 __________O___ -1 19.5000 132.400 2 7 274
1913242N19145 1913 42 WP MM NOT_NAMED 1913-09-02 00:00:00 NR 19.5249 132.060 main 1031 996 __________P___ -1 19.5249 132.060 2 6 274
1913242N19145 1913 42 WP MM NOT_NAMED 1913-09-02 03:00:00 NR 19.5498 131.727 main 996 966 __________P___ -1 19.5498 131.727 2 6 275
1913242N19145 1913 42 WP MM NOT_NAMED 1913-09-02 06:00:00 NR 19.5749 131.407 main 966 934 __________P___ -1 19.5749 131.407 2 6 275
1913242N19145 1913 42 WP MM NOT_NAMED 1913-09-02 09:00:00 NR 19.6000 131.100 main 934 914 __________O___ -1 19.6000 131.100 2 5 275
1913242N19145 1913 42 WP MM NOT_NAMED 1913-09-02 12:00:00 NR 19.6201 130.855 main 914 882 __________P___ -1 19.6201 130.855 2 5 275
1913242N19145 1913 42 WP MM NOT_NAMED 1913-09-02 15:00:00 NR 19.6412 130.617 main 882 863 __________P___ -1 19.6412 130.617 2 5 276
1913242N19145 1913 42 WP MM NOT_NAMED 1913-09-02 18:00:00 NR 19.6667 130.346 main 853 822 __________P___ -1 19.6667 130.346 2 6 276
1913242N19145 1913 42 WP MM NOT_NAMED 1913-09-02 21:00:00 NR 19.7000 130.000 main 822 770 __________O___ -1 19.7000 130.000 2 8 276
1913242N19145 1913 42 WP MM NOT_NAMED 1913-09-03 00:00:00 NR 19.7435 129.517 main 770 721 __________P___ -1 19.7435 129.517 2 10 275
1913242N19145 1913 42 WP MM NOT_NAMED 1913-09-03 03:00:00 NR 19.7935 128.960 main 721 659 __________P___ -1 19.7935 128.960 2 11 275
1913242N19145 1913 42 WP MM NOT_NAMED 1913-09-03 06:00:00 NR 19.8466 128.373 main 659 601 __________P___ -1 19.8466 128.373 2 11 276
1913242N19145 1913 42 WP MM NOT_NAMED 1913-09-03 09:00:00 NR 19.9000 127.800 main 601 551 __________O___ -1 19.9000 127.800 2 10 276
1913242N19145 1913 42 WP MM NOT_NAMED 1913-09-03 12:00:00 NR 19.9496 127.287 main 551 505 __________P___ -1 19.9496 127.287 2 9 276
1913242N19145 1913 42 WP MM NOT_NAMED 1913-09-03 15:00:00 NR 19.9996 126.797 main 505 466 __________P___ -1 19.9996 126.797 2 9 276
1913242N19145 1913 42 WP MM NOT_NAMED 1913-09-03 18:00:00 NR 20.0497 126.334 main 456 423 __________P___ -1 20.0497 126.334 2 8 277
1913242N19145 1913 42 WP MM NOT_NAMED 1913-09-03 21:00:00 NR 20.1000 125.900 main 423 386 __________O___ -1 20.1000 125.900 2 8 277
1913242N19145 1913 42 WP MM NOT_NAMED 1913-09-04 00:00:00 NR 20.1409 125.520 main 386 364 __________P___ -1 20.1409 125.520 2 7 277
1913242N19145 1913 42 WP MM NOT_NAMED 1913-09-04 03:00:00 NR 20.1836 125.164 main 364 330 __________P___ -1 20.1836 125.164 2 7 278
1913242N19145 1913 42 WP MM NOT_NAMED 1913-09-04 06:00:00 NR 20.2346 124.801 main 330 306 __________P___ -1 20.2346 124.801 2 7 279
1913242N19145 1913 42 WP MM NOT_NAMED 1913-09-04 09:00:00 NR 20.3000 124.400 main 306 277 __________O___ -1 20.3000 124.400 2 8 279
1913242N19145 1913 42 WP MM NOT_NAMED 1913-09-04 12:00:00 NR 20.3651 123.934 main 279 256 __________P___ -1 20.3651 123.934 2 9 279
1913242N19145 1913 42 WP MM NOT_NAMED 1913-09-04 15:00:00 NR 20.4470 123.424 main 251 243 __________P___ -1 20.4470 123.424 2 10 281
1913242N19145 1913 42 WP MM NOT_NAMED 1913-09-04 18:00:00 NR 20.5555 122.877 main 253 197 __________P___ -1 20.5555 122.877 2 11 284
1913242N19145 1913 42 WP MM NOT_NAMED 1913-09-04 21:00:00 NR 20.7000 122.300 main 197 154 __________O___ -1 20.7000 122.300 2 11 286
1913242N19145 1913 42 WP MM NOT_NAMED 1913-09-05 00:00:00 NR 20.8589 121.755 main 145 105 __________P___ -1 20.8589 121.755 2 11 289
1913242N19145 1913 42 WP MM NOT_NAMED 1913-09-05 03:00:00 NR 21.0573 121.175 main 94 67 __________P___ -1 21.0573 121.175 2 12 291
1913242N19145 1913 42 WP MM NOT_NAMED 1913-09-05 06:00:00 NR 21.3020 120.532 main 70 63 __________P___ -1 21.3020 120.532 2 14 293
1913242N19145 1913 42 WP MM NOT_NAMED 1913-09-05 09:00:00 NR 21.6000 119.800 main 98 98 __________O___ -1 21.6000 119.800 2 17 294
1913242N19145 1913 42 WP MM NOT_NAMED 1913-09-05 12:00:00 NR 21.9773 118.874 main 154 147 __________P___ -1 21.9773 118.874 2 20 294
1913242N19145 1913 42 WP MM NOT_NAMED 1913-09-05 15:00:00 NR 22.3973 117.867 main 147 42 __________P___ -1 22.3973 117.867 2 20 294
1913242N19145 1913 42 WP MM NOT_NAMED 1913-09-05 18:00:00 NR 22.8181 116.877 main 42 0 __________P___ -1 22.8181 116.877 2 19 295
1913242N19145 1913 42 WP MM NOT_NAMED 1913-09-05 21:00:00 NR 23.2000 116.000 main 0 0 __________O___ -1 23.2000 116.000 2 15 295
1913242N19145 1913 42 WP MM NOT_NAMED 1913-09-06 00:00:00 NR 23.4653 115.371 main 0 0 __________P___ -1 23.4653 115.371 2 12 296
1913242N19145 1913 42 WP MM NOT_NAMED 1913-09-06 03:00:00 NR 23.6957 114.868 main 0 0 __________P___ -1 23.6957 114.868 2 10 298
1913242N19145 1913 42 WP MM NOT_NAMED 1913-09-06 06:00:00 NR 23.9285 114.431 main 0 0 __________P___ -1 23.9285 114.431 2 9 302
1913242N19145 1913 42 WP MM NOT_NAMED 1913-09-06 09:00:00 NR 24.2000 114.000 main 0 0 __________O___ -1 24.2000 114.000 2 10 306
1913242N19145 1913 42 WP MM NOT_NAMED 1913-09-06 12:00:00 NR 24.5367 113.527 main 0 0 __________P___ -1 24.5367 113.527 2 12 309
1913242N19145 1913 42 WP MM NOT_NAMED 1913-09-06 15:00:00 NR 24.9285 113.010 main 0 0 __________P___ -1 24.9285 113.010 2 13 310
1913242N19145 1913 42 WP MM NOT_NAMED 1913-09-06 18:00:00 NR 25.3559 112.464 main 0 0 __________P___ -1 25.3559 112.464 2 13 311
1913242N19145 1913 42 WP MM NOT_NAMED 1913-09-06 21:00:00 NR 25.8000 111.900 main 0 __________O___ -1 25.8000 111.900 2 14 311

デジタル台風データ・検索

IBTrACS Databaseについて

本データベースは、米国NOAAが公開する1842年以降の世界の熱帯低気圧のベストトラックデータアーカイブInternational Best Track Archive for Climate Stewardship (IBTrACS)を、ウェブで閲覧しやすい形式に変換したものです。

最終更新日:2021-11-26